Home > Products > Valid Products > MTR

000
SAUS46 KSGX 241353
MTRCZZ
METAR KCZZ 241352Z AUTO 05006KT 09/M01 A3005 RMK AO1 SLP153
T00891006





000
SAUS46 KSGX 241352
MTRSAN
METAR KSAN 241351Z 34003KT 10SM CLR 18/09 A2997 RMK AO2 SLP149
T01780094





000
SAUS46 KSGX 241254
MTRCZZ
METAR KCZZ 241252Z AUTO 04005KT 11/00 A3004 RMK AO1 SLP146 T01060000





000
SAUS46 KSGX 241252
MTRSAN
METAR KSAN 241251Z 00000KT 10SM CLR 18/11 A2997 RMK AO2 SLP148
T01830111





000
SAUS46 KSGX 241153
MTRCZZ
METAR KCZZ 241152Z AUTO 06006KT 10/01 A3004 RMK AO1 SLP144 T01000006
10128 20089 55002





000
SAUS46 KSGX 241152
MTRSAN
METAR KSAN 241151Z 00000KT 10SM CLR 18/12 A2997 RMK AO2 SLP147
T01830122 10206 20178 53000





000
SAUS46 KSGX 241053
MTRCZZ
METAR KCZZ 241052Z AUTO 06006KT 09/M01 A3004 RMK AO1 SLP142
T00941006





000
SAUS46 KSGX 241053
MTRCZZ
METAR KCZZ 241052Z AUTO 06006KT 09/M01 A3004 RMK AO1 SLP142
T00941006





000
SAUS46 KSGX 241052
MTRSAN
METAR KSAN 241051Z 00000KT 9SM CLR 18/14 A2996 RMK AO2 SLP146
T01830139





000
SAUS46 KSGX 241052
MTRSAN
METAR KSAN 241051Z 00000KT 9SM CLR 18/14 A2996 RMK AO2 SLP146
T01830139





000
SAUS46 KSGX 240953
MTRCZZ
METAR KCZZ 240952Z AUTO 05006KT 10/01 A3004 RMK AO1 SLP142 T01000006





000
SAUS46 KSGX 240952
MTRSAN
METAR KSAN 240951Z 00000KT 10SM CLR 18/12 A2997 RMK AO2 SLP147
T01830117





000
SAUS46 KSGX 240853
MTRCZZ
METAR KCZZ 240852Z AUTO 05005KT 11/01 A3004 RMK AO1 SLP143 T01060011
58001





000
SAUS46 KSGX 240852
MTRSAN
METAR KSAN 240851Z 00000KT 10SM CLR 18/13 A2997 RMK AO2 SLP147
T01830128 53001





000
SAUS46 KSGX 240753
MTRCZZ
METAR KCZZ 240752Z AUTO 04007KT 12/02 A3005 RMK AO1 SLP143 T01170017
403220078





000
SAUS46 KSGX 240752
MTRSAN
METAR KSAN 240751Z 00000KT 10SM CLR 19/13 A2996 RMK AO2 SLP146
T01940128 402560167





000
SAUS46 KSGX 240654
MTRCZZ
METAR KCZZ 240652Z AUTO 05005KT 12/02 A3005 RMK AO1 SLP144 T01170017





000
SAUS46 KSGX 240652
MTRSAN
METAR KSAN 240651Z 00000KT 9SM CLR 19/16 A2996 RMK AO2 SLP146
T01940156





000
SAUS46 KSGX 240554
MTRCZZ
METAR KCZZ 240552Z AUTO 05006KT 12/02 A3005 RMK AO1 SLP145 T01220017
10272 20117 51009





000
SAUS46 KSGX 240552
MTRSAN
METAR KSAN 240551Z 00000KT 7SM CLR 21/17 A2996 RMK AO2 SLP146
T02060167 10250 20206 51008





000
SAUS46 KSGX 240453
MTRCZZ
METAR KCZZ 240452Z AUTO 04005KT 14/02 A3004 RMK AO1 SLP143 T01390017





000
SAUS46 KSGX 240453
MTRCZZ
METAR KCZZ 240452Z AUTO 04005KT 14/02 A3004 RMK AO1 SLP143 T01390017





000
SAUS46 KSGX 240452
MTRSAN
METAR KSAN 240451Z 00000KT 10SM CLR 21/16 A2996 RMK AO2 SLP144
T02110161





000
SAUS46 KSGX 240452
MTRSAN
METAR KSAN 240451Z 00000KT 10SM CLR 21/16 A2996 RMK AO2 SLP144
T02110161





000
SAUS46 KSGX 240353
MTRCZZ
METAR KCZZ 240352Z AUTO 05006KT 15/02 A3003 RMK AO1 SLP142 T01500017





000
SAUS46 KSGX 240353
MTRCZZ
METAR KCZZ 240352Z AUTO 05006KT 15/02 A3003 RMK AO1 SLP142 T01500017





000
SAUS46 KSGX 240352
MTRSAN
METAR KSAN 240351Z 00000KT 10SM CLR 22/17 A2995 RMK AO2 SLP140
T02220167





000
SAUS46 KSGX 240352
MTRSAN
METAR KSAN 240351Z 00000KT 10SM CLR 22/17 A2995 RMK AO2 SLP140
T02220167





000
SAUS46 KSGX 240253
MTRCZZ
METAR KCZZ 240252Z AUTO 05005KT 17/02 A3002 RMK AO1 SLP143 T01720022
51012





000
SAUS46 KSGX 240253
MTRCZZ
METAR KCZZ 240252Z AUTO 05005KT 17/02 A3002 RMK AO1 SLP143 T01720022
51012





000
SAUS46 KSGX 240252
MTRSAN
METAR KSAN 240251Z 00000KT 7SM FEW200 22/18 A2994 RMK AO2 SLP138
T02220178 50003





000
SAUS46 KSGX 240252
MTRSAN
METAR KSAN 240251Z 00000KT 7SM FEW200 22/18 A2994 RMK AO2 SLP138
T02220178 50003





000
SAUS46 KSGX 240154
MTRCZZ
METAR KCZZ 240152Z AUTO 00000KT 21/03 A3001 RMK AO1 SLP141 T02060028





000
SAUS46 KSGX 240154
MTRCZZ
METAR KCZZ 240152Z AUTO 00000KT 21/03 A3001 RMK AO1 SLP141 T02060028





000
SAUS46 KSGX 240152
MTRSAN
METAR KSAN 240151Z 33003KT 9SM FEW200 22/18 A2994 RMK AO2 SLP138
T02170178





000
SAUS46 KSGX 240152
MTRSAN
METAR KSAN 240151Z 33003KT 9SM FEW200 22/18 A2994 RMK AO2 SLP138
T02170178





000
SAUS46 KSGX 240053
MTRCZZ
METAR KCZZ 240052Z AUTO 21008KT 24/04 A2999 RMK AO1 SLP131 T02440039





000
SAUS46 KSGX 240052
MTRSAN
METAR KSAN 240051Z 29003KT 10SM FEW200 24/16 A2993 RMK AO2 SLP135
T02390156





000
SAUS46 KSGX 232354
MTRCZZ
METAR KCZZ 232352Z AUTO 21011KT 28/03 A2998 RMK AO1 SLP123 T02780033
10322 20278 53000





000
SAUS46 KSGX 232352
MTRSAN
METAR KSAN 232351Z 29003KT 10SM FEW200 25/14 A2993 RMK AO2 SLP135
T02500144 10256 20217 56007





000
SAUS46 KSGX 232254
MTRCZZ
METAR KCZZ 232252Z AUTO 22013KT 29/03 A2997 RMK AO1 SLP122 T02890033





000
SAUS46 KSGX 232252
MTRSAN
METAR KSAN 232251Z 30004KT 10SM FEW200 24/16 A2993 RMK AO2 SLP135
T02390156





000
SAUS46 KSGX 232154
MTRCZZ
METAR KCZZ 232152Z AUTO 22014G19KT 31/02 A2997 RMK AO1 SLP118
T03060022





000
SAUS46 KSGX 232154
MTRCZZ
METAR KCZZ 232152Z AUTO 22014G19KT 31/02 A2997 RMK AO1 SLP118
T03060022





000
SAUS46 KSGX 232152
MTRSAN
METAR KSAN 232151Z 28008KT 10SM FEW200 24/14 A2993 RMK AO2 SLP135
T02440144





000
SAUS46 KSGX 232152
MTRSAN
METAR KSAN 232151Z 28008KT 10SM FEW200 24/14 A2993 RMK AO2 SLP135
T02440144





000
SAUS46 KSGX 232054
MTRCZZ
METAR KCZZ 232052Z AUTO 22008KT 31/00 A2998 RMK AO1 SLP121 T03110000
58020





000
SAUS46 KSGX 232052
MTRSAN
METAR KSAN 232051Z 32007KT 10SM FEW200 24/16 A2995 RMK AO2 SLP141
T02440161 58019





000
SAUS46 KSGX 231953
MTRCZZ
METAR KCZZ 231952Z AUTO 20012KT 31/M01 A3000 RMK AO1 SLP128
T03111006





000
SAUS46 KSGX 231953
MTRCZZ
METAR KCZZ 231952Z AUTO 20012KT 31/M01 A3000 RMK AO1 SLP128
T03111006





000
SAUS46 KSGX 231952
MTRSAN
METAR KSAN 231951Z 31006KT 10SM FEW200 24/14 A2997 RMK AO2 SLP148
T02440144





000
SAUS46 KSGX 231952
MTRSAN
METAR KSAN 231951Z 31006KT 10SM FEW200 24/14 A2997 RMK AO2 SLP148
T02440144





000
SAUS46 KSGX 231853
MTRCZZ
METAR KCZZ 231852Z AUTO 24006KT 31/M01 A3003 RMK AO1 SLP137
T03061006





000
SAUS46 KSGX 231853
MTRCZZ
METAR KCZZ 231852Z AUTO 24006KT 31/M01 A3003 RMK AO1 SLP137
T03061006





000
SAUS46 KSGX 231852
MTRSAN
METAR KSAN 231851Z 31007KT 10SM FEW200 23/15 A3000 RMK AO2 SLP157
T02280150





000
SAUS46 KSGX 231852
MTRSAN
METAR KSAN 231851Z 31007KT 10SM FEW200 23/15 A3000 RMK AO2 SLP157
T02280150





000
SAUS46 KSGX 231756 COR
MTRCZZ
METAR KCZZ 231752Z AUTO 00000KT 29/01 A3004 RMK AO1 SLP143 T02890006
10294 20078 50000





000
SAUS46 KSGX 231756 COR
MTRCZZ
METAR KCZZ 231752Z AUTO 00000KT 29/01 A3004 RMK AO1 SLP143 T02890006
10294 20078 50000





000
SAUS46 KSGX 231752
MTRSAN
METAR KSAN 231751Z 32005KT 7SM FEW003 SCT200 22/16 A3001 RMK AO2
SLP160 T02170156 10217 20167 51010





000
SAUS46 KSGX 231752
MTRSAN
METAR KSAN 231751Z 32005KT 7SM FEW003 SCT200 22/16 A3001 RMK AO2
SLP160 T02170156 10217 20167 51010





000
SAUS46 KSGX 231653
MTRCZZ
METAR KCZZ 231652Z AUTO 00000KT 27/M03 A3005 RMK AO1 SLP146
T02671033





000
SAUS46 KSGX 231653
MTRCZZ
METAR KCZZ 231652Z AUTO 00000KT 27/M03 A3005 RMK AO1 SLP146
T02671033





000
SAUS46 KSGX 231652
MTRSAN
METAR KSAN 231651Z 29004KT 7SM FEW003 SCT200 22/13 A3001 RMK AO2
SLP160 T02170133





000
SAUS46 KSGX 231652
MTRSAN
METAR KSAN 231651Z 29004KT 7SM FEW003 SCT200 22/13 A3001 RMK AO2
SLP160 T02170133





000
SAUS46 KSGX 231553
MTRCZZ
METAR KCZZ 231552Z AUTO 00000KT 20/M02 A3005 RMK AO1 SLP150
T02001022





000
SAUS46 KSGX 231552
MTRSAN
METAR KSAN 231551Z 29003KT 7SM FEW200 19/12 A3000 RMK AO2 SLP157
T01940122





000
SAUS46 KSGX 231552
MTRSAN
METAR KSAN 231551Z 29003KT 7SM FEW200 19/12 A3000 RMK AO2 SLP157
T01940122





000
SAUS46 KSGX 231453
MTRCZZ
METAR KCZZ 231452Z AUTO 06004KT 13/M04 A3004 RMK AO1 SLP152
T01281044 53012





000
SAUS46 KSGX 231453
MTRCZZ
METAR KCZZ 231452Z AUTO 06004KT 13/M04 A3004 RMK AO1 SLP152
T01281044 53012





000
SAUS46 KSGX 231452
MTRSAN
METAR KSAN 231451Z 00000KT 7SM FEW001 SCT200 18/13 A2998 RMK AO2
SLP150 T01780128 53011





000
SAUS46 KSGX 231452
MTRSAN
METAR KSAN 231451Z 00000KT 7SM FEW001 SCT200 18/13 A2998 RMK AO2
SLP150 T01780128 53011





000
SAUS46 KSGX 231353
MTRCZZ
METAR KCZZ 231352Z AUTO 05007KT 09/M06 A3002 RMK AO1 SLP147
T00941056





000
SAUS46 KSGX 231352
MTRSAN
METAR KSAN 231351Z 00000KT 10SM BCFG FEW001 SCT005 SCT200 17/12
A2996 RMK AO2 SLP144 VIS W 1/2 T01670122





000
SAUS46 KSGX 231325
MTRSAN
SPECI KSAN 231323Z 00000KT 7SM R09/1200VP6000FT BCFG SCT001 17/13
A2996 RMK AO2 VIS SW 1/2





000
SAUS46 KSGX 231253
MTRCZZ
METAR KCZZ 231252Z AUTO 05006KT 10/M05 A3001 RMK AO1 SLP139
T01001050





000
SAUS46 KSGX 231252
MTRSAN
METAR KSAN 231251Z 36003KT 8SM FEW008 17/14 A2995 RMK AO2 SLP142
T01670139





000
SAUS46 KSGX 231244
MTRSAN
SPECI KSAN 231242Z 34003KT 8SM FEW008 17/14 A2995 RMK AO2





000
SAUS46 KSGX 231153
MTRCZZ
METAR KCZZ 231152Z AUTO 04006KT 11/M04 A3000 RMK AO1 SLP133
T01061039 10133 20078 56006





000
SAUS46 KSGX 231152
MTRSAN
METAR KSAN 231151Z 36003KT 8SM CLR 17/14 A2994 RMK AO2 SLP139
T01670139 10200 20167 55007





000
SAUS46 KSGX 231053
MTRCZZ
METAR KCZZ 231052Z AUTO 06007KT 08/M07 A3001 RMK AO1 SLP134
T00781067





000
SAUS46 KSGX 231052
MTRSAN
METAR KSAN 231051Z 00000KT 6SM BR CLR 17/15 A2994 RMK AO2 SLP137
T01720150





000
SAUS46 KSGX 230953
MTRCZZ
METAR KCZZ 230952Z AUTO 04006KT 09/M06 A3002 RMK AO1 SLP135
T00941061





000
SAUS46 KSGX 230953
MTRCZZ
METAR KCZZ 230952Z AUTO 04006KT 09/M06 A3002 RMK AO1 SLP135
T00941061





000
SAUS46 KSGX 230952
MTRSAN
METAR KSAN 230951Z 00000KT 6SM BR CLR 18/16 A2995 RMK AO2 SLP142
T01830156





000
SAUS46 KSGX 230952
MTRSAN
METAR KSAN 230951Z 00000KT 6SM BR CLR 18/16 A2995 RMK AO2 SLP142
T01830156





000
SAUS46 KSGX 230853
MTRCZZ
METAR KCZZ 230852Z AUTO 05006KT 11/M04 A3003 RMK AO1 SLP137
T01061044 58001





000
SAUS46 KSGX 230852
MTRSAN
METAR KSAN 230851Z 00000KT 5SM BR CLR 18/16 A2996 RMK AO2 SLP146
T01830156 58005





000
SAUS46 KSGX 230753
MTRCZZ
METAR KCZZ 230752Z AUTO 05006KT 10/M02 A3003 RMK AO1 SLP141
T01001022 403060039





000
SAUS46 KSGX 230753
MTRCZZ
METAR KCZZ 230752Z AUTO 05006KT 10/M02 A3003 RMK AO1 SLP141
T01001022 403060039





000
SAUS46 KSGX 230752
MTRSAN
METAR KSAN 230751Z 00000KT 7SM CLR 19/16 A2997 RMK AO2 SLP149
T01890156 402610172





000
SAUS46 KSGX 230752
MTRSAN
METAR KSAN 230751Z 00000KT 7SM CLR 19/16 A2997 RMK AO2 SLP149
T01890156 402610172





000
SAUS46 KSGX 230653
MTRCZZ
METAR KCZZ 230652Z AUTO 05005KT 11/M01 A3003 RMK AO1 SLP140
T01111006





000
SAUS46 KSGX 230652
MTRSAN
METAR KSAN 230651Z 00000KT 7SM CLR 19/17 A2998 RMK AO2 SLP150
T01940167





000
SAUS46 KSGX 230553
MTRCZZ
METAR KCZZ 230552Z AUTO 04005KT 13/01 A3003 RMK AO1 SLP139 T01330006
10261 20122 51009





000
SAUS46 KSGX 230553
MTRCZZ
METAR KCZZ 230552Z AUTO 04005KT 13/01 A3003 RMK AO1 SLP139 T01330006
10261 20122 51009





000
SAUS46 KSGX 230552
MTRSAN
METAR KSAN 230551Z 00000KT 7SM CLR 20/17 A2998 RMK AO2 SLP151
T02000167 10239 20200 51013





000
SAUS46 KSGX 230552
MTRSAN
METAR KSAN 230551Z 00000KT 7SM CLR 20/17 A2998 RMK AO2 SLP151
T02000167 10239 20200 51013





000
SAUS46 KSGX 230453
MTRCZZ
METAR KCZZ 230452Z AUTO 00000KT 14/02 A3002 RMK AO1 SLP139 T01440017





000
SAUS46 KSGX 230453
MTRCZZ
METAR KCZZ 230452Z AUTO 00000KT 14/02 A3002 RMK AO1 SLP139 T01440017





000
SAUS46 KSGX 230452
MTRSAN
METAR KSAN 230451Z 02003KT 9SM CLR 20/16 A2997 RMK AO2 SLP148
T02000161





000
SAUS46 KSGX 230452
MTRSAN
METAR KSAN 230451Z 02003KT 9SM CLR 20/16 A2997 RMK AO2 SLP148
T02000161





000
SAUS46 KSGX 230353
MTRCZZ
METAR KCZZ 230352Z AUTO 06005KT 16/02 A3001 RMK AO1 SLP138 T01560017





000
SAUS46 KSGX 230353
MTRCZZ
METAR KCZZ 230352Z AUTO 06005KT 16/02 A3001 RMK AO1 SLP138 T01560017





000
SAUS46 KSGX 230352
MTRSAN
METAR KSAN 230351Z 00000KT 8SM CLR 21/17 A2995 RMK AO2 SLP142
T02110167





000
SAUS46 KSGX 230352
MTRSAN
METAR KSAN 230351Z 00000KT 8SM CLR 21/17 A2995 RMK AO2 SLP142
T02110167





000
SAUS46 KSGX 230253
MTRCZZ
METAR KCZZ 230252Z AUTO 04005KT 17/03 A3000 RMK AO1 SLP140 T01720028
51018





000
SAUS46 KSGX 230252
MTRSAN
METAR KSAN 230251Z 29004KT 8SM SCT200 21/17 A2994 RMK AO2 SLP138
T02110172 53012





000
SAUS46 KSGX 230153
MTRCZZ
METAR KCZZ 230152Z AUTO 04003KT 18/03 A2998 RMK AO1 SLP136 T01780033





000
SAUS46 KSGX 230153
MTRCZZ
METAR KCZZ 230152Z AUTO 04003KT 18/03 A2998 RMK AO1 SLP136 T01780033





000
SAUS46 KSGX 230152
MTRSAN
METAR KSAN 230151Z 31003KT 10SM BKN200 22/17 A2992 RMK AO2 SLP132
T02170172





000
SAUS46 KSGX 230152
MTRSAN
METAR KSAN 230151Z 31003KT 10SM BKN200 22/17 A2992 RMK AO2 SLP132
T02170172





000
SAUS46 KSGX 230053
MTRCZZ
METAR KCZZ 230052Z AUTO 20006KT 23/06 A2996 RMK AO1 SLP125 T02330061





000
SAUS46 KSGX 230053
MTRCZZ
METAR KCZZ 230052Z AUTO 20006KT 23/06 A2996 RMK AO1 SLP125 T02330061





000
SAUS46 KSGX 230052
MTRSAN
METAR KSAN 230051Z 30006KT 8SM FEW020 BKN200 22/17 A2991 RMK AO2
SLP127 T02220172





000
SAUS46 KSGX 230052
MTRSAN
METAR KSAN 230051Z 30006KT 8SM FEW020 BKN200 22/17 A2991 RMK AO2
SLP127 T02220172





000
SAUS46 KSGX 222353
MTRCZZ
METAR KCZZ 222352Z AUTO 22012KT 26/04 A2994 RMK AO1 SLP115 T02610039
10306 20261 53005





000
SAUS46 KSGX 222353
MTRCZZ
METAR KCZZ 222352Z AUTO 22012KT 26/04 A2994 RMK AO1 SLP115 T02610039
10306 20261 53005





000
SAUS46 KSGX 222352
MTRSAN
METAR KSAN 222351Z 29006KT 10SM FEW020 BKN200 24/17 A2991 RMK AO2
SLP126 T02390167 10261 20233 50000





000
SAUS46 KSGX 222352
MTRSAN
METAR KSAN 222351Z 29006KT 10SM FEW020 BKN200 24/17 A2991 RMK AO2
SLP126 T02390167 10261 20233 50000





000
SAUS46 KSGX 222254
MTRCZZ
METAR KCZZ 222252Z AUTO 22014KT 29/M02 A2993 RMK AO1 SLP109
T02891022





000
SAUS46 KSGX 222254
MTRSAN
METAR KSAN 222251Z 30008KT 10SM BKN200 24/16 A2991 RMK AO2 SLP128
T02440161





000
SAUS46 KSGX 222254
MTRSAN
METAR KSAN 222251Z 30008KT 10SM BKN200 24/16 A2991 RMK AO2 SLP128
T02440161





000
SAUS46 KSGX 222254
MTRCZZ
METAR KCZZ 222252Z AUTO 22014KT 29/M02 A2993 RMK AO1 SLP109
T02891022





000
SAUS46 KSGX 222154
MTRCZZ
METAR KCZZ 222152Z AUTO 22012G18KT 29/M07 A2993 RMK AO1 SLP107
T02941072





000
SAUS46 KSGX 222152
MTRSAN
METAR KSAN 222151Z 29009KT 10SM SCT200 24/16 A2991 RMK AO2 SLP127
T02390161





000
SAUS46 KSGX 222053
MTRCZZ
METAR KCZZ 222052Z AUTO 22013KT 30/M07 A2993 RMK AO1 SLP105
T03001067 58015





000
SAUS46 KSGX 222052
MTRSAN
METAR KSAN 222051Z 32008KT 10SM FEW200 23/17 A2991 RMK AO2 SLP126
T02330167 56013





000
SAUS46 KSGX 221954
MTRCZZ
METAR KCZZ 221952Z AUTO 22007KT 200V280 30/M14 A2994 RMK AO1 SLP109
T03001139





000
SAUS46 KSGX 221952
MTRSAN
METAR KSAN 221951Z 29007KT 10SM FEW200 24/16 A2992 RMK AO2 SLP131
T02440156 $





000
SAUS46 KSGX 221853
MTRCZZ
METAR KCZZ 221852Z AUTO VRB04KT 29/M12 A2996 RMK AO1 SLP117
T02891122





000
SAUS46 KSGX 221852
MTRSAN
METAR KSAN 221851Z 29004KT 9SM FEW200 25/16 A2993 RMK AO2 SLP135
T02500156 $





000
SAUS46 KSGX 221753
MTRCZZ
METAR KCZZ 221752Z AUTO 00000KT 27/M04 A2997 RMK AO1 SLP122
T02721044 10272 20039 50002





000
SAUS46 KSGX 221753
MTRCZZ
METAR KCZZ 221752Z AUTO 00000KT 27/M04 A2997 RMK AO1 SLP122
T02721044 10272 20039 50002





000
SAUS46 KSGX 221752
MTRSAN
METAR KSAN 221751Z 26003KT 7SM FEW200 24/13 A2994 RMK AO2 SLP140
T02390128 10239 20172 50003 PNO $





000
SAUS46 KSGX 221752
MTRSAN
METAR KSAN 221751Z 26003KT 7SM FEW200 24/13 A2994 RMK AO2 SLP140
T02390128 10239 20172 50003 PNO $





000
SAUS46 KSGX 221653
MTRCZZ
METAR KCZZ 221652Z AUTO 00000KT 23/M03 A2998 RMK AO1 SLP126
T02281028





000
SAUS46 KSGX 221653
MTRCZZ
METAR KCZZ 221652Z AUTO 00000KT 23/M03 A2998 RMK AO1 SLP126
T02281028





000
SAUS46 KSGX 221652
MTRSAN
METAR KSAN 221651Z 00000KT 7SM FEW200 22/13 A2995 RMK AO2 SLP141
T02170133 PNO $





000
SAUS46 KSGX 221652
MTRSAN
METAR KSAN 221651Z 00000KT 7SM FEW200 22/13 A2995 RMK AO2 SLP141
T02170133 PNO $





000
SAUS46 KSGX 221553
MTRCZZ
METAR KCZZ 221552Z AUTO 00000KT 17/M02 A2998 RMK AO1 SLP131
T01721017





000
SAUS46 KSGX 221553
MTRCZZ
METAR KCZZ 221552Z AUTO 00000KT 17/M02 A2998 RMK AO1 SLP131
T01721017





000
SAUS46 KSGX 221552
MTRSAN
METAR KSAN 221551Z 11003KT 6SM HZ CLR 20/14 A2995 RMK AO2 SLP140
T02000139





000
SAUS46 KSGX 221455
MTRCZZ
METAR KCZZ 221452Z AUTO 00000KT 09/M03 A2997 RMK AO1 SLP130
T00941033 51014





000
SAUS46 KSGX 221455
MTRSAN
METAR KSAN 221451Z 00000KT 5SM BR CLR 18/15 A2994 RMK AO2 SLP136
T01830150 51013





000
SAUS46 KSGX 221353
MTRCZZ
METAR KCZZ 221352Z AUTO 04005KT 06/M02 A2996 RMK AO1 SLP126
T00611022





000
SAUS46 KSGX 221352
MTRSAN
METAR KSAN 221351Z 00000KT 7SM FEW010 18/15 A2992 RMK AO2 SLP131
T01780150





000
SAUS46 KSGX 221253
MTRCZZ
METAR KCZZ 221252Z AUTO 05006KT 06/M03 A2994 RMK AO1 SLP120
T00561028





000
SAUS46 KSGX 221252
MTRSAN
METAR KSAN 221251Z 00000KT 7SM FEW012 18/14 A2992 RMK AO2 SLP130
T01780144





000
SAUS46 KSGX 221153
MTRCZZ
METAR KCZZ 221152Z AUTO 06006KT 07/M01 A2992 RMK AO1 SLP109
T00671006 10106 20039 58000





000
SAUS46 KSGX 221152
MTRSAN
METAR KSAN 221151Z 35003KT 6SM BR SCT011 18/15 A2990 RMK AO2 SLP124
T01830150 10200 20178 55001





000
SAUS46 KSGX 221131
MTRSAN
SPECI KSAN 221130Z 00000KT 6SM BR SCT011 18/15 A2989 RMK AO2





000
SAUS46 KSGX 221107
MTRSAN
SPECI KSAN 221106Z 00000KT 6SM BR BKN011 18/15 A2988 RMK AO2





000
SAUS46 KSGX 221053
MTRSAN
METAR KSAN 221051Z 00000KT 6SM BR SCT013 18/16 A2988 RMK AO2 SLP118
T01830156





000
SAUS46 KSGX 221053
MTRCZZ
METAR KCZZ 221052Z AUTO 06006KT 07/01 A2992 RMK AO1 SLP107 T00720011





000
SAUS46 KSGX 221044
MTRSAN
SPECI KSAN 221043Z 00000KT 6SM BR SCT013 18/16 A2988 RMK AO2





000
SAUS46 KSGX 220953
MTRCZZ
METAR KCZZ 220952Z AUTO 04006KT 07/02 A2993 RMK AO1 SLP109 T00670017





000
SAUS46 KSGX 220953
MTRSAN
METAR KSAN 220951Z 07004KT 6SM BR BKN013 19/16 A2989 RMK AO2 SLP121
T01890161





000
SAUS46 KSGX 220953
MTRSAN
METAR KSAN 220951Z 07004KT 6SM BR BKN013 19/16 A2989 RMK AO2 SLP121
T01890161





000
SAUS46 KSGX 220953
MTRCZZ
METAR KCZZ 220952Z AUTO 04006KT 07/02 A2993 RMK AO1 SLP109 T00670017





000
SAUS46 KSGX 220920
MTRSAN
SPECI KSAN 220919Z 03004KT 6SM BR BKN013 18/16 A2990 RMK AO2





000
SAUS46 KSGX 220853
MTRCZZ
METAR KCZZ 220852Z AUTO 05005KT 08/04 A2992 RMK AO1 SLP107 T00780044
58004





000
SAUS46 KSGX 220852
MTRSAN
METAR KSAN 220851Z 01003KT 6SM BR FEW010 18/15 A2990 RMK AO2 SLP124
T01780150 53000





000
SAUS46 KSGX 220753
MTRCZZ
METAR KCZZ 220752Z AUTO 05003KT 09/06 A2993 RMK AO1 SLP107 T00940061
402720067





000
SAUS46 KSGX 220752
MTRSAN
METAR KSAN 220751Z 00000KT 7SM CLR 19/16 A2989 RMK AO2 SLP122
T01890161 402440189





000
SAUS46 KSGX 220654
MTRCZZ
METAR KCZZ 220652Z AUTO 05003KT 10/08 A2994 RMK AO1 SLP110 T01000078





000
SAUS46 KSGX 220652
MTRSAN
METAR KSAN 220651Z 00000KT 8SM FEW010 19/16 A2990 RMK AO2 SLP123
T01940161





000
SAUS46 KSGX 220553
MTRCZZ
METAR KCZZ 220552Z AUTO 05006KT 11/08 A2994 RMK AO1 SLP111 T01060078
10244 20100 53013





000
SAUS46 KSGX 220553
MTRCZZ
METAR KCZZ 220552Z AUTO 05006KT 11/08 A2994 RMK AO1 SLP111 T01060078
10244 20100 53013





000
SAUS46 KSGX 220552
MTRSAN
METAR KSAN 220551Z 00000KT 9SM FEW015 19/16 A2990 RMK AO2 SLP124
T01940161 10228 20194 51007





000
SAUS46 KSGX 220552
MTRSAN
METAR KSAN 220551Z 00000KT 9SM FEW015 19/16 A2990 RMK AO2 SLP124
T01940161 10228 20194 51007





000
SAUS46 KSGX 220453
MTRCZZ
METAR KCZZ 220452Z AUTO 06005KT 12/08 A2993 RMK AO1 SLP108 T01170083





000
SAUS46 KSGX 220453
MTRCZZ
METAR KCZZ 220452Z AUTO 06005KT 12/08 A2993 RMK AO1 SLP108 T01170083





000
SAUS46 KSGX 220452
MTRSAN
METAR KSAN 220451Z 00000KT 9SM FEW015 20/16 A2990 RMK AO2 SLP124
T02000161





000
SAUS46 KSGX 220452
MTRSAN
METAR KSAN 220451Z 00000KT 9SM FEW015 20/16 A2990 RMK AO2 SLP124
T02000161





000
SAUS46 KSGX 220353
MTRCZZ
METAR KCZZ 220352Z AUTO 03004KT 13/09 A2991 RMK AO1 SLP105 T01280089





000
SAUS46 KSGX 220352
MTRSAN
METAR KSAN 220351Z 02004KT 10SM FEW015 21/16 A2988 RMK AO2 SLP118
T02060161





000
SAUS46 KSGX 220253
MTRCZZ
METAR KCZZ 220252Z AUTO 04003KT 16/11 A2990 RMK AO1 SLP105 T01560111
53012





000
SAUS46 KSGX 220253
MTRCZZ
METAR KCZZ 220252Z AUTO 04003KT 16/11 A2990 RMK AO1 SLP105 T01560111
53012





000
SAUS46 KSGX 220252
MTRSAN
METAR KSAN 220251Z VRB03KT 10SM SCT015 BKN200 21/16 A2988 RMK AO2
SLP117 T02110161 53010





000
SAUS46 KSGX 220252
MTRSAN
METAR KSAN 220251Z VRB03KT 10SM SCT015 BKN200 21/16 A2988 RMK AO2
SLP117 T02110161 53010





000
SAUS46 KSGX 220240
MTRSAN
SPECI KSAN 220239Z 36005KT 10SM SCT015 BKN200 21/16 A2988 RMK AO2





000
SAUS46 KSGX 220158
MTRSAN
SPECI KSAN 220157Z 34008KT 10SM BKN015 BKN200 21/17 A2987 RMK AO2





000
SAUS46 KSGX 220158
MTRSAN
SPECI KSAN 220157Z 34008KT 10SM BKN015 BKN200 21/17 A2987 RMK AO2





000
SAUS46 KSGX 220153
MTRCZZ
METAR KCZZ 220152Z AUTO 21005KT 19/13 A2988 RMK AO1 SLP099 T01890128





000
SAUS46 KSGX 220152
MTRSAN
METAR KSAN 220151Z 32007KT 10SM SCT015 BKN200 21/17 A2987 RMK AO2
SLP114 T02110167





000
SAUS46 KSGX 220152
MTRSAN
METAR KSAN 220151Z 32007KT 10SM SCT015 BKN200 21/17 A2987 RMK AO2
SLP114 T02110167





000
SAUS46 KSGX 220053
MTRCZZ
METAR KCZZ 220052Z AUTO 24007KT 21/12 A2987 RMK AO1 SLP094 T02110122





000
SAUS46 KSGX 220052
MTRSAN
METAR KSAN 220051Z 29007KT 10SM FEW018 SCT200 22/16 A2985 RMK AO2
SLP109 T02170161





000
SAUS46 KSGX 212353
MTRCZZ
METAR KCZZ 212352Z AUTO 23010KT 25/11 A2986 RMK AO1 SLP086 T02500111
10272 20244 55002





000
SAUS46 KSGX 212352
MTRSAN
METAR KSAN 212351Z 29008KT 10SM FEW200 23/16 A2985 RMK AO2 SLP107
T02280161 10244 20228 55007





000
SAUS46 KSGX 212253
MTRCZZ
METAR KCZZ 212252Z AUTO 25007G20KT 27/07 A2986 RMK AO1 SLP082
T02670072





000
SAUS46 KSGX 212253
MTRCZZ
METAR KCZZ 212252Z AUTO 25007G20KT 27/07 A2986 RMK AO1 SLP082
T02670072





000
SAUS46 KSGX 212252
MTRSAN
METAR KSAN 212251Z 31008KT 10SM FEW200 23/16 A2985 RMK AO2 SLP106
T02330161





000
SAUS46 KSGX 212252
MTRSAN
METAR KSAN 212251Z 31008KT 10SM FEW200 23/16 A2985 RMK AO2 SLP106
T02330161





000
SAUS46 KSGX 212153
MTRCZZ
METAR KCZZ 212152Z AUTO 22012KT 27/08 A2986 RMK AO1 SLP082 T02670083





000
SAUS46 KSGX 212153
MTRCZZ
METAR KCZZ 212152Z AUTO 22012KT 27/08 A2986 RMK AO1 SLP082 T02670083





000
SAUS46 KSGX 212152
MTRSAN
METAR KSAN 212151Z 31008KT 10SM FEW200 23/16 A2986 RMK AO2 SLP109
T02330161





000
SAUS46 KSGX 212152
MTRSAN
METAR KSAN 212151Z 31008KT 10SM FEW200 23/16 A2986 RMK AO2 SLP109
T02330161





000
SAUS46 KSGX 212053
MTRCZZ
METAR KCZZ 212052Z AUTO 23014G18KT 27/09 A2987 RMK AO1 SLP085
T02670089 58016





000
SAUS46 KSGX 212052
MTRSAN
METAR KSAN 212051Z 31010KT 10SM FEW018 23/16 A2987 RMK AO2 SLP114
T02280161 56018





000
SAUS46 KSGX 211953
MTRCZZ
METAR KCZZ 211952Z AUTO 22014G19KT 27/07 A2988 RMK AO1 SLP092
T02670067





000
SAUS46 KSGX 211952
MTRSAN
METAR KSAN 211951Z 28006KT 10SM FEW200 23/16 A2989 RMK AO2 SLP120
T02330156





000
SAUS46 KSGX 211853
MTRCZZ
METAR KCZZ 211852Z AUTO 27008KT 27/04 A2991 RMK AO1 SLP099 T02670044





000
SAUS46 KSGX 211852
MTRSAN
METAR KSAN 211851Z 29006KT 10SM FEW018 23/16 A2991 RMK AO2 SLP126
T02330156





000
SAUS46 KSGX 211753
MTRCZZ
METAR KCZZ 211752Z AUTO 18008KT 24/08 A2992 RMK AO1 SLP103 T02440078
10244 20067 56006





000
SAUS46 KSGX 211752
MTRSAN
METAR KSAN 211751Z 30009KT 10SM FEW018 23/16 A2992 RMK AO2 SLP133
T02280156 10233 20200 51004





000
SAUS46 KSGX 211653
MTRCZZ
METAR KCZZ 211652Z AUTO 17004KT 22/08 A2992 RMK AO1 SLP107 T02220083





000
SAUS46 KSGX 211653
MTRCZZ
METAR KCZZ 211652Z AUTO 17004KT 22/08 A2992 RMK AO1 SLP107 T02220083





000
SAUS46 KSGX 211652
MTRSAN
METAR KSAN 211651Z 00000KT 9SM FEW018 21/16 A2992 RMK AO2 SLP130
T02110156





000
SAUS46 KSGX 211652
MTRSAN
METAR KSAN 211651Z 00000KT 9SM FEW018 21/16 A2992 RMK AO2 SLP130
T02110156





000
SAUS46 KSGX 211624
MTRSAN
SPECI KSAN 211623Z 00000KT 9SM SCT018 21/16 A2992 RMK AO2





000
SAUS46 KSGX 211553
MTRCZZ
METAR KCZZ 211552Z AUTO 09004KT 17/10 A2993 RMK AO1 SLP112 T01720100





000
SAUS46 KSGX 211553
MTRCZZ
METAR KCZZ 211552Z AUTO 09004KT 17/10 A2993 RMK AO1 SLP112 T01720100





000
SAUS46 KSGX 211552
MTRSAN
METAR KSAN 211551Z 10003KT 9SM BKN018 21/16 A2993 RMK AO2 SLP133
T02060156





000
SAUS46 KSGX 211552
MTRSAN
METAR KSAN 211551Z 10003KT 9SM BKN018 21/16 A2993 RMK AO2 SLP133
T02060156





000
SAUS46 KSGX 211453
MTRCZZ
METAR KCZZ 211452Z AUTO 06005KT 11/08 A2994 RMK AO1 SLP118 T01060078
53006





000
SAUS46 KSGX 211452
MTRSAN
METAR KSAN 211451Z 00000KT 10SM BKN018 21/16 A2991 RMK AO2 SLP129
T02060156 53004





    US Dept of Commerce
    National Oceanic and Atmospheric Administration
    National Weather Service
    1325 East West Highway
    Silver Spring, MD 20910
    Page Author: NWS Internet Services Team
Disclaimer
Information Quality
Credits
Glossary
Privacy Policy
Freedom of Information Act (FOIA)
About Us
Career Opportunities